Time;durP1;ratioP1;P1;durP2;ratioP2;P2;SDS_P1;SDS_P2;PMS_P1;PMS_P2;Temp;Humidity;BMP_temperature;BMP_pressure;BME280_temperature;BME280_humidity;BME280_pressure;Samples;Min_cycle;Max_cycle;Signal;HPM_P1;HPM_P2
2023/04/21 00:01:00;;;;;;;3.28;2.50;;;;;;;;;;5046873;28;20044;-42
2023/04/21 00:03:27;;;;;;;3.63;2.50;;;;;;;;;;5048538;28;20029;-42
2023/04/21 00:05:55;;;;;;;3.00;2.60;;;;;;;;;;5049506;28;20037;-43
2023/04/21 00:08:20;;;;;;;7.25;2.70;;;;;;;;;;5046473;28;20028;-42
2023/04/21 00:10:46;;;;;;;3.45;2.60;;;;;;;;;;5042615;28;20044;-41
2023/04/21 00:13:11;;;;;;;5.18;2.13;;;;;;;;;;5047670;28;20537;-42
2023/04/21 00:15:37;;;;;;;3.95;2.47;;;;;;;;;;5047558;28;20123;-41
2023/04/21 00:18:02;;;;;;;3.20;2.35;;;;;;;;;;5044067;28;20473;-42
2023/04/21 00:20:29;;;;;;;3.83;2.38;;;;;;;;;;5044044;28;20055;-42
2023/04/21 00:22:58;;;;;;;4.75;1.95;;;;;;;;;;5042280;28;20021;-44
2023/04/21 00:25:24;;;;;;;6.43;2.13;;;;;;;;;;5045868;28;20025;-41
2023/04/21 00:27:50;;;;;;;7.47;2.58;;;;;;;;;;5045627;28;20055;-44
2023/04/21 00:30:15;;;;;;;6.85;2.53;;;;;;;;;;5044550;28;20030;-43
2023/04/21 00:32:41;;;;;;;7.32;2.42;;;;;;;;;;5046934;28;20029;-42
2023/04/21 00:35:06;;;;;;;3.17;2.60;;;;;;;;;;5046439;28;20083;-39
2023/04/21 00:37:31;;;;;;;3.33;2.42;;;;;;;;;;5044591;28;20028;-44
2023/04/21 00:39:57;;;;;;;4.15;2.42;;;;;;;;;;5043440;28;20032;-42
2023/04/21 00:42:23;;;;;;;4.68;2.20;;;;;;;;;;5045576;28;20612;-45
2023/04/21 00:44:49;;;;;;;12.95;2.58;;;;;;;;;;5047059;28;20032;-45
2023/04/21 00:47:15;;;;;;;4.88;2.25;;;;;;;;;;5044391;28;20045;-42
2023/04/21 00:49:40;;;;;;;3.83;2.40;;;;;;;;;;5045568;28;20025;-43
2023/04/21 00:52:06;;;;;;;4.47;2.40;;;;;;;;;;5046706;28;20029;-42
2023/04/21 00:54:34;;;;;;;3.83;2.25;;;;;;;;;;5046801;28;20431;-42
2023/04/21 00:57:00;;;;;;;3.40;2.40;;;;;;;;;;5044544;28;20152;-42
2023/04/21 00:59:26;;;;;;;2.47;2.00;;;;;;;;;;5047431;28;20021;-41
2023/04/21 01:01:52;;;;;;;5.53;2.30;;;;;;;;;;5045044;28;20044;-42
2023/04/21 01:04:17;;;;;;;4.57;2.30;;;;;;;;;;5046282;28;20111;-41
2023/04/21 01:06:43;;;;;;;3.05;2.13;;;;;;;;;;5047837;28;20033;-41
2023/04/21 01:09:08;;;;;;;5.60;2.50;;;;;;;;;;5043609;28;20111;-42
2023/04/21 01:11:34;;;;;;;9.68;2.33;;;;;;;;;;5030953;28;20037;-48
2023/04/21 01:13:59;;;;;;;6.10;2.50;;;;;;;;;;5027217;28;20021;-41
2023/04/21 01:16:25;;;;;;;2.40;2.20;;;;;;;;;;5023610;28;20453;-44
2023/04/21 01:18:52;;;;;;;2.95;1.80;;;;;;;;;;5024418;28;20105;-42
2023/04/21 01:21:18;;;;;;;2.45;2.20;;;;;;;;;;5022257;28;20034;-42
2023/04/21 01:23:43;;;;;;;3.78;3.00;;;;;;;;;;5027443;28;20052;-41
2023/04/21 01:26:09;;;;;;;2.60;2.03;;;;;;;;;;5025559;28;20387;-44
2023/04/21 01:28:35;;;;;;;6.53;2.38;;;;;;;;;;5025297;28;20536;-41
2023/04/21 01:31:01;;;;;;;2.90;2.13;;;;;;;;;;5022673;28;20116;-41
2023/04/21 01:33:26;;;;;;;3.88;2.40;;;;;;;;;;5026466;28;20421;-43
2023/04/21 01:35:52;;;;;;;4.55;2.47;;;;;;;;;;5028059;28;20124;-42
2023/04/21 01:38:17;;;;;;;3.22;1.90;;;;;;;;;;5026977;28;20079;-41
2023/04/21 01:40:46;;;;;;;6.10;2.30;;;;;;;;;;5025175;28;20048;-42
2023/04/21 01:43:12;;;;;;;5.65;2.45;;;;;;;;;;5025490;28;20075;-42
2023/04/21 01:45:38;;;;;;;2.83;2.25;;;;;;;;;;5026286;28;20048;-42
2023/04/21 01:48:03;;;;;;;3.45;2.28;;;;;;;;;;5026088;28;20037;-42
2023/04/21 01:50:29;;;;;;;2.78;1.88;;;;;;;;;;5028203;28;20056;-42
2023/04/21 01:52:54;;;;;;;4.30;2.35;;;;;;;;;;5044873;28;20036;-43
2023/04/21 01:55:20;;;;;;;3.40;2.45;;;;;;;;;;5041909;28;20445;-41
2023/04/21 01:57:45;;;;;;;5.68;2.78;;;;;;;;;;5024612;28;20470;-42
2023/04/21 02:00:11;;;;;;;4.55;2.40;;;;;;;;;;5021351;28;20470;-42
2023/04/21 02:02:37;;;;;;;5.15;2.55;;;;;;;;;;5049267;28;20028;-41
2023/04/21 02:05:02;;;;;;;3.80;2.40;;;;;;;;;;5046502;28;20024;-41
2023/04/21 02:07:27;;;;;;;3.75;2.17;;;;;;;;;;5045960;28;20457;-42
2023/04/21 02:09:53;;;;;;;4.20;3.35;;;;;;;;;;5042243;28;20025;-43
2023/04/21 02:12:18;;;;;;;3.97;2.30;;;;;;;;;;5041285;28;20033;-43
2023/04/21 02:14:46;;;;;;;3.63;2.28;;;;;;;;;;5046440;28;20095;-42
2023/04/21 02:17:12;;;;;;;4.68;2.08;;;;;;;;;;5042123;28;20041;-44
2023/04/21 02:19:37;;;;;;;5.07;2.25;;;;;;;;;;5044829;28;20063;-42
2023/04/21 02:22:03;;;;;;;3.80;2.60;;;;;;;;;;5046238;28;20041;-41
2023/04/21 02:24:28;;;;;;;5.97;2.85;;;;;;;;;;5042088;28;20029;-46
2023/04/21 02:26:53;;;;;;;4.32;2.97;;;;;;;;;;5041785;28;20036;-41
2023/04/21 02:29:19;;;;;;;2.92;2.50;;;;;;;;;;5046830;28;20090;-43
2023/04/21 02:31:44;;;;;;;4.80;2.67;;;;;;;;;;5041390;28;20113;-42
2023/04/21 02:34:10;;;;;;;9.63;2.70;;;;;;;;;;5041816;28;20454;-44
2023/04/21 02:36:35;;;;;;;3.65;2.63;;;;;;;;;;5044843;28;20107;-41
2023/04/21 02:39:00;;;;;;;4.13;3.72;;;;;;;;;;5043291;28;20048;-42
2023/04/21 02:41:26;;;;;;;5.18;3.58;;;;;;;;;;5044161;28;20025;-42
2023/04/21 02:43:51;;;;;;;5.95;2.97;;;;;;;;;;5044588;28;20037;-41
2023/04/21 02:46:16;;;;;;;4.47;2.50;;;;;;;;;;5040068;28;20033;-43
2023/04/21 02:48:42;;;;;;;3.10;2.22;;;;;;;;;;5046863;28;20040;-41
2023/04/21 02:51:12;;;;;;;5.35;3.33;;;;;;;;;;5041713;28;20063;-41
2023/04/21 02:53:38;;;;;;;3.70;2.47;;;;;;;;;;5043422;28;20481;-42
2023/04/21 02:56:03;;;;;;;6.18;2.88;;;;;;;;;;5044896;28;20048;-41
2023/04/21 02:58:29;;;;;;;6.75;2.83;;;;;;;;;;5044722;28;20377;-44
2023/04/21 03:00:55;;;;;;;3.13;2.83;;;;;;;;;;5042603;28;20037;-41
2023/04/21 03:03:20;;;;;;;4.93;3.20;;;;;;;;;;5043088;28;20036;-41
2023/04/21 03:05:46;;;;;;;4.22;2.63;;;;;;;;;;5043884;28;20041;-42
2023/04/21 03:08:11;;;;;;;4.85;2.65;;;;;;;;;;5042499;28;20381;-42
2023/04/21 03:10:37;;;;;;;6.15;2.70;;;;;;;;;;5043131;28;20068;-44
2023/04/21 03:13:02;;;;;;;7.22;3.20;;;;;;;;;;5045967;28;20033;-41
2023/04/21 03:15:28;;;;;;;4.18;2.47;;;;;;;;;;5043733;28;20132;-41
2023/04/21 03:17:53;;;;;;;3.70;2.60;;;;;;;;;;5044310;28;20024;-41
2023/04/21 03:20:19;;;;;;;7.32;2.97;;;;;;;;;;5041731;28;20071;-43
2023/04/21 03:22:44;;;;;;;4.40;2.90;;;;;;;;;;5046138;28;20028;-42
2023/04/21 03:25:10;;;;;;;8.48;3.45;;;;;;;;;;5041096;28;20056;-43
2023/04/21 03:27:36;;;;;;;4.65;2.85;;;;;;;;;;5044662;28;20021;-43
2023/04/21 03:30:01;;;;;;;3.88;2.90;;;;;;;;;;5041540;28;20029;-42
2023/04/21 03:32:27;;;;;;;3.25;2.95;;;;;;;;;;5043995;28;20032;-41
2023/04/21 03:34:52;;;;;;;3.53;2.65;;;;;;;;;;5039073;28;20079;-41
2023/04/21 03:37:18;;;;;;;2.90;2.55;;;;;;;;;;5043364;28;20029;-41
2023/04/21 03:39:43;;;;;;;4.65;2.90;;;;;;;;;;5041614;28;20098;-41
2023/04/21 03:42:09;;;;;;;5.80;3.00;;;;;;;;;;5042152;28;20057;-41
2023/04/21 03:44:34;;;;;;;3.63;2.40;;;;;;;;;;5045914;28;20032;-41
2023/04/21 03:47:02;;;;;;;3.33;2.67;;;;;;;;;;5025743;28;20044;-41
2023/04/21 03:49:27;;;;;;;3.03;2.38;;;;;;;;;;5025630;28;20236;-43
2023/04/21 03:51:53;;;;;;;2.70;2.28;;;;;;;;;;5027185;28;20108;-42
2023/04/21 03:54:18;;;;;;;4.28;2.75;;;;;;;;;;5025238;28;20044;-42
2023/04/21 03:56:43;;;;;;;3.90;2.70;;;;;;;;;;5037514;28;20036;-41
2023/04/21 03:59:09;;;;;;;6.15;2.80;;;;;;;;;;5045492;28;20075;-41
2023/04/21 04:01:34;;;;;;;5.43;2.90;;;;;;;;;;5043274;28;20398;-41
2023/04/21 04:04:00;;;;;;;3.63;2.78;;;;;;;;;;5043949;28;20017;-42
2023/04/21 04:06:25;;;;;;;4.47;2.40;;;;;;;;;;5043236;28;20071;-41
2023/04/21 04:08:51;;;;;;;4.93;2.47;;;;;;;;;;5044817;28;20116;-42
2023/04/21 04:11:16;;;;;;;3.95;2.83;;;;;;;;;;5039744;28;20037;-41
2023/04/21 04:13:41;;;;;;;3.28;2.70;;;;;;;;;;5042454;28;20491;-41
2023/04/21 04:16:07;;;;;;;3.85;2.80;;;;;;;;;;5042546;28;20056;-42
2023/04/21 04:18:32;;;;;;;3.63;2.63;;;;;;;;;;5041285;28;20053;-41
2023/04/21 04:20:57;;;;;;;8.77;2.80;;;;;;;;;;5040128;28;20058;-41
2023/04/21 04:23:23;;;;;;;5.63;3.15;;;;;;;;;;5045443;28;20409;-45
2023/04/21 04:25:48;;;;;;;9.80;2.70;;;;;;;;;;5046396;28;20262;-41
2023/04/21 04:28:14;;;;;;;5.72;2.83;;;;;;;;;;5046035;28;20036;-42
2023/04/21 04:30:40;;;;;;;4.43;2.80;;;;;;;;;;5046323;28;20390;-42
2023/04/21 04:33:05;;;;;;;5.45;2.70;;;;;;;;;;5046537;28;20029;-41
2023/04/21 04:35:30;;;;;;;3.92;2.58;;;;;;;;;;5044846;28;20045;-41
2023/04/21 04:37:56;;;;;;;5.03;2.92;;;;;;;;;;5047562;28;20028;-41
2023/04/21 04:40:22;;;;;;;4.40;2.95;;;;;;;;;;5046228;28;20052;-41
2023/04/21 04:42:47;;;;;;;3.45;2.88;;;;;;;;;;5043672;28;20100;-43
2023/04/21 04:45:15;;;;;;;5.30;2.70;;;;;;;;;;5046327;28;20040;-41
2023/04/21 04:47:41;;;;;;;4.03;2.63;;;;;;;;;;5042354;28;20374;-44
2023/04/21 04:50:06;;;;;;;2.92;2.72;;;;;;;;;;5042995;28;20025;-41
2023/04/21 04:52:32;;;;;;;4.47;3.00;;;;;;;;;;5044185;28;20021;-41
2023/04/21 04:54:57;;;;;;;3.50;2.80;;;;;;;;;;5042475;28;20055;-42
2023/04/21 04:57:22;;;;;;;8.57;3.13;;;;;;;;;;5044051;28;20033;-41
2023/04/21 04:59:48;;;;;;;6.55;3.10;;;;;;;;;;5047017;28;20035;-45
2023/04/21 05:02:13;;;;;;;8.65;2.63;;;;;;;;;;5045292;28;20052;-42
2023/04/21 05:04:39;;;;;;;7.20;2.70;;;;;;;;;;5043542;28;20044;-43
2023/04/21 05:07:06;;;;;;;4.38;2.97;;;;;;;;;;5045247;28;20110;-42
2023/04/21 05:09:32;;;;;;;2.75;2.53;;;;;;;;;;5042608;28;20478;-45
2023/04/21 05:11:58;;;;;;;4.57;2.58;;;;;;;;;;5045266;28;20045;-42
2023/04/21 05:14:23;;;;;;;4.47;2.78;;;;;;;;;;5047547;28;20047;-42
2023/04/21 05:16:48;;;;;;;5.32;2.80;;;;;;;;;;5042131;28;20057;-41
2023/04/21 05:19:14;;;;;;;5.97;2.40;;;;;;;;;;5046812;28;20112;-41
2023/04/21 05:21:39;;;;;;;3.20;2.85;;;;;;;;;;5045930;28;20436;-42
2023/04/21 05:24:04;;;;;;;4.65;2.88;;;;;;;;;;5041326;28;20021;-42
2023/04/21 05:26:30;;;;;;;2.65;2.47;;;;;;;;;;5046232;28;20041;-41
2023/04/21 05:28:57;;;;;;;5.18;2.95;;;;;;;;;;5044874;28;20028;-42
2023/04/21 05:31:25;;;;;;;6.32;2.47;;;;;;;;;;5045284;28;20163;-43
2023/04/21 05:33:50;;;;;;;4.18;2.95;;;;;;;;;;5042947;28;20438;-41
2023/04/21 05:36:16;;;;;;;3.83;2.42;;;;;;;;;;5043512;28;20088;-45
2023/04/21 05:38:41;;;;;;;3.50;2.67;;;;;;;;;;5045211;28;20025;-43
2023/04/21 05:41:07;;;;;;;3.45;2.85;;;;;;;;;;5043959;28;20472;-42
2023/04/21 05:43:33;;;;;;;3.00;2.70;;;;;;;;;;5043563;28;20066;-42
2023/04/21 05:45:59;;;;;;;15.25;2.95;;;;;;;;;;5044180;28;20623;-42
2023/04/21 05:48:24;;;;;;;3.22;2.80;;;;;;;;;;5042819;28;20028;-41
2023/04/21 05:50:50;;;;;;;2.80;2.35;;;;;;;;;;5042640;28;21523;-42
2023/04/21 05:53:16;;;;;;;7.03;3.05;;;;;;;;;;5043897;28;20082;-43
2023/04/21 05:55:41;;;;;;;6.82;2.88;;;;;;;;;;5045565;28;20557;-41
2023/04/21 05:58:06;;;;;;;7.70;3.00;;;;;;;;;;5042846;28;20062;-42
2023/04/21 06:00:32;;;;;;;7.63;3.10;;;;;;;;;;5044917;28;20041;-45
2023/04/21 06:02:57;;;;;;;3.72;2.53;;;;;;;;;;5042991;28;20067;-44
2023/04/21 06:05:22;;;;;;;4.70;2.83;;;;;;;;;;5042587;28;20031;-41
2023/04/21 06:07:48;;;;;;;5.95;3.03;;;;;;;;;;5045581;28;20040;-41
2023/04/21 06:10:13;;;;;;;3.10;2.80;;;;;;;;;;5043242;28;20032;-41
2023/04/21 06:12:39;;;;;;;5.45;3.33;;;;;;;;;;5043798;28;20111;-42
2023/04/21 06:15:05;;;;;;;5.93;3.30;;;;;;;;;;5043269;28;20520;-41
2023/04/21 06:17:30;;;;;;;11.63;3.08;;;;;;;;;;5044187;28;20041;-41
2023/04/21 06:19:56;;;;;;;4.25;2.63;;;;;;;;;;5043349;28;20037;-44
2023/04/21 06:22:22;;;;;;;10.82;3.10;;;;;;;;;;5042336;28;20048;-41
2023/04/21 06:24:47;;;;;;;6.97;2.78;;;;;;;;;;5043364;28;20037;-50
2023/04/21 06:27:13;;;;;;;6.15;2.78;;;;;;;;;;5043219;28;20074;-42
2023/04/21 06:29:39;;;;;;;8.40;3.20;;;;;;;;;;5045571;28;20497;-45
2023/04/21 06:32:05;;;;;;;4.55;2.38;;;;;;;;;;5042060;28;20375;-41
2023/04/21 06:34:30;;;;;;;9.88;3.63;;;;;;;;;;5042821;28;20032;-41
2023/04/21 06:36:55;;;;;;;3.15;2.45;;;;;;;;;;5042607;28;20038;-41
2023/04/21 06:39:21;;;;;;;2.97;2.50;;;;;;;;;;5044431;28;20037;-41
2023/04/21 06:41:46;;;;;;;3.63;2.95;;;;;;;;;;5045371;28;20033;-43
2023/04/21 06:44:12;;;;;;;9.50;2.70;;;;;;;;;;5044581;28;20025;-41
2023/04/21 06:46:39;;;;;;;6.55;2.85;;;;;;;;;;5042383;28;20118;-45
2023/04/21 06:49:05;;;;;;;4.28;2.75;;;;;;;;;;5044620;28;20033;-41
2023/04/21 06:51:31;;;;;;;5.60;2.60;;;;;;;;;;5038796;28;20040;-41
2023/04/21 06:53:56;;;;;;;5.85;3.03;;;;;;;;;;5040999;28;20095;-41
2023/04/21 06:56:22;;;;;;;2.50;2.30;;;;;;;;;;5044977;28;20048;-41
2023/04/21 06:58:47;;;;;;;3.55;2.40;;;;;;;;;;5043167;28;20485;-41
2023/04/21 07:01:12;;;;;;;7.60;2.67;;;;;;;;;;5041616;28;20067;-43
2023/04/21 07:03:38;;;;;;;3.20;2.88;;;;;;;;;;5042090;28;20033;-41
2023/04/21 07:06:03;;;;;;;7.03;2.13;;;;;;;;;;5041933;28;20041;-42
2023/04/21 07:08:29;;;;;;;2.58;2.30;;;;;;;;;;5042358;28;20034;-45
2023/04/21 07:10:54;;;;;;;7.68;2.50;;;;;;;;;;5042748;28;20124;-43
2023/04/21 07:13:20;;;;;;;4.10;2.35;;;;;;;;;;5040914;28;20021;-44
2023/04/21 07:15:45;;;;;;;7.57;2.50;;;;;;;;;;5040169;28;20053;-44
2023/04/21 07:18:10;;;;;;;3.75;2.30;;;;;;;;;;5044525;28;20087;-46
2023/04/21 07:20:36;;;;;;;2.60;2.17;;;;;;;;;;5040948;28;20124;-42
2023/04/21 07:23:01;;;;;;;4.95;2.35;;;;;;;;;;5043732;28;20445;-46
2023/04/21 07:25:26;;;;;;;5.20;2.10;;;;;;;;;;5043770;28;20072;-42
2023/04/21 07:27:52;;;;;;;6.93;2.45;;;;;;;;;;5043136;28;23447;-41
2023/04/21 07:30:18;;;;;;;3.33;2.45;;;;;;;;;;5042975;28;20022;-41
2023/04/21 07:32:43;;;;;;;10.85;2.00;;;;;;;;;;5043087;28;20013;-46
2023/04/21 07:35:08;;;;;;;2.80;2.00;;;;;;;;;;5043866;28;20068;-42
2023/04/21 07:37:34;;;;;;;2.67;2.00;;;;;;;;;;5046353;28;20021;-41
2023/04/21 07:39:59;;;;;;;3.67;2.10;;;;;;;;;;5038569;28;20021;-46
2023/04/21 07:42:25;;;;;;;2.42;2.13;;;;;;;;;;5040760;28;20481;-42
2023/04/21 07:44:51;;;;;;;4.35;1.92;;;;;;;;;;5043053;28;20032;-45
2023/04/21 07:47:17;;;;;;;3.53;2.05;;;;;;;;;;5025502;28;20398;-41
2023/04/21 07:49:42;;;;;;;2.97;2.22;;;;;;;;;;5023218;28;20014;-42
2023/04/21 07:52:08;;;;;;;2.97;2.00;;;;;;;;;;5036807;28;20047;-45
2023/04/21 07:54:33;;;;;;;9.13;2.15;;;;;;;;;;5042099;28;20372;-42
2023/04/21 07:56:58;;;;;;;7.00;2.40;;;;;;;;;;5044322;28;20060;-41
2023/04/21 07:59:24;;;;;;;8.18;1.90;;;;;;;;;;5046985;28;20029;-44
2023/04/21 08:01:50;;;;;;;8.75;1.77;;;;;;;;;;5042789;28;20041;-40
2023/04/21 08:04:16;;;;;;;4.50;1.90;;;;;;;;;;5047646;28;20025;-40
2023/04/21 08:06:41;;;;;;;3.17;1.58;;;;;;;;;;5046668;28;20094;-44
2023/04/21 08:09:07;;;;;;;3.33;1.77;;;;;;;;;;5044959;28;20586;-44
2023/04/21 08:11:32;;;;;;;8.68;2.33;;;;;;;;;;5045371;28;20083;-41
2023/04/21 08:13:58;;;;;;;2.90;1.80;;;;;;;;;;5045335;28;20025;-47
2023/04/21 08:16:23;;;;;;;3.00;1.92;;;;;;;;;;5046907;28;20088;-45
2023/04/21 08:18:48;;;;;;;3.20;2.03;;;;;;;;;;5048613;28;20417;-46
2023/04/21 08:21:14;;;;;;;1.83;1.60;;;;;;;;;;5043027;28;20124;-44
2023/04/21 08:23:39;;;;;;;5.15;1.80;;;;;;;;;;5048055;28;20663;-45
2023/04/21 08:26:05;;;;;;;2.08;1.55;;;;;;;;;;5046276;28;20176;-48
2023/04/21 08:28:30;;;;;;;5.32;1.92;;;;;;;;;;5045998;28;20036;-42
2023/04/21 08:30:56;;;;;;;1.95;1.60;;;;;;;;;;5042278;28;20037;-43
2023/04/21 08:33:21;;;;;;;1.98;1.60;;;;;;;;;;5044915;28;20013;-42
2023/04/21 08:35:46;;;;;;;1.60;1.50;;;;;;;;;;5045772;28;20545;-42
2023/04/21 08:38:12;;;;;;;2.90;1.60;;;;;;;;;;5047162;28;20025;-41
2023/04/21 08:40:38;;;;;;;6.30;1.50;;;;;;;;;;5049626;28;20056;-46
2023/04/21 08:43:05;;;;;;;3.35;1.90;;;;;;;;;;5046308;28;20064;-49
2023/04/21 08:45:32;;;;;;;6.70;1.60;;;;;;;;;;5045668;28;20049;-46
2023/04/21 08:47:59;;;;;;;2.47;1.75;;;;;;;;;;5046860;28;20100;-44
2023/04/21 08:50:30;;;;;;;1.90;1.40;;;;;;;;;;5047242;28;20045;-44
2023/04/21 08:52:56;;;;;;;3.80;1.60;;;;;;;;;;5048670;28;20086;-46
2023/04/21 08:55:31;;;;;;;6.97;1.50;;;;;;;;;;5044741;28;20041;-47
2023/04/21 08:57:57;;;;;;;2.33;1.60;;;;;;;;;;5045503;28;20051;-43
2023/04/21 09:00:22;;;;;;;4.68;1.35;;;;;;;;;;5046789;28;20021;-41
2023/04/21 09:03:01;;;;;;;7.30;1.63;;;;;;;;;;5047165;28;20021;-41
2023/04/21 09:05:32;;;;;;;1.60;1.50;;;;;;;;;;5041835;28;20073;-43
2023/04/21 09:08:11;;;;;;;3.40;1.67;;;;;;;;;;5044239;28;20025;-40
2023/04/21 09:10:48;;;;;;;11.15;2.00;;;;;;;;;;5046615;28;20041;-40
2023/04/21 09:13:14;;;;;;;11.80;2.00;;;;;;;;;;5046453;28;20473;-41
2023/04/21 09:15:42;;;;;;;3.75;1.70;;;;;;;;;;5041508;28;20056;-41
2023/04/21 09:18:13;;;;;;;10.20;1.50;;;;;;;;;;5045356;28;20049;-47
2023/04/21 09:20:39;;;;;;;7.72;1.88;;;;;;;;;;5042466;28;20521;-43
2023/04/21 09:23:05;;;;;;;3.45;1.52;;;;;;;;;;5044053;28;20119;-46
2023/04/21 09:25:32;;;;;;;9.40;1.90;;;;;;;;;;5040296;28;20037;-46
2023/04/21 09:27:59;;;;;;;7.28;1.60;;;;;;;;;;5024175;28;20044;-50
2023/04/21 09:30:25;;;;;;;3.17;1.60;;;;;;;;;;5026745;28;20092;-46
2023/04/21 09:32:54;;;;;;;3.53;1.30;;;;;;;;;;5045936;28;20037;-41
2023/04/21 09:35:20;;;;;;;3.60;1.58;;;;;;;;;;5043954;28;20112;-41
2023/04/21 09:37:45;;;;;;;8.23;1.70;;;;;;;;;;5044354;28;20489;-43
2023/04/21 09:40:17;;;;;;;4.38;1.55;;;;;;;;;;5043957;28;20040;-49
2023/04/21 09:42:42;;;;;;;5.50;1.50;;;;;;;;;;5043714;28;20190;-46
2023/04/21 09:45:09;;;;;;;7.50;1.70;;;;;;;;;;5045276;28;20136;-50
2023/04/21 09:47:39;;;;;;;3.22;1.50;;;;;;;;;;5046529;28;20025;-48
2023/04/21 09:50:06;;;;;;;6.10;2.08;;;;;;;;;;5043600;28;20440;-46
2023/04/21 09:52:32;;;;;;;1.92;1.38;;;;;;;;;;5043649;28;20052;-44
2023/04/21 09:55:03;;;;;;;3.67;1.20;;;;;;;;;;5045062;28;20484;-43
2023/04/21 09:57:31;;;;;;;4.82;1.30;;;;;;;;;;5044686;28;20030;-40
2023/04/21 10:00:04;;;;;;;8.65;1.45;;;;;;;;;;5046465;28;20029;-41
2023/04/21 10:02:30;;;;;;;3.88;1.50;;;;;;;;;;5045233;28;20044;-47
2023/04/21 10:04:55;;;;;;;2.13;1.70;;;;;;;;;;5042408;28;22781;-41
2023/04/21 10:07:21;;;;;;;1.48;1.35;;;;;;;;;;5043495;28;20127;-43
2023/04/21 10:09:52;;;;;;;3.47;1.80;;;;;;;;;;5042592;28;20523;-44
2023/04/21 10:12:18;;;;;;;5.50;1.40;;;;;;;;;;5040867;28;20048;-42
2023/04/21 10:14:43;;;;;;;3.22;1.92;;;;;;;;;;5045941;28;20496;-41
2023/04/21 10:17:09;;;;;;;8.55;1.80;;;;;;;;;;5043791;28;20048;-41
2023/04/21 10:19:39;;;;;;;1.85;1.50;;;;;;;;;;5040196;28;20036;-43
2023/04/21 10:22:08;;;;;;;3.00;1.58;;;;;;;;;;5042375;28;20525;-41
2023/04/21 10:24:41;;;;;;;2.78;1.75;;;;;;;;;;5043439;28;20037;-41
2023/04/21 10:27:11;;;;;;;2.20;1.73;;;;;;;;;;5044710;28;20044;-41
2023/04/21 10:29:37;;;;;;;7.03;1.50;;;;;;;;;;5044405;28;20043;-44
2023/04/21 10:32:03;;;;;;;6.22;1.67;;;;;;;;;;5044253;28;20132;-41
2023/04/21 10:34:37;;;;;;;8.38;1.38;;;;;;;;;;5045129;28;20028;-42
2023/04/21 10:37:03;;;;;;;4.22;1.52;;;;;;;;;;5045641;28;20084;-41
2023/04/21 10:39:34;;;;;;;5.00;1.40;;;;;;;;;;5042211;28;20112;-41
2023/04/21 10:42:12;;;;;;;33.87;2.67;;;;;;;;;;5043596;28;20090;-43
2023/04/21 10:44:41;;;;;;;7.03;1.45;;;;;;;;;;5042702;28;20616;-41
2023/04/21 10:47:07;;;;;;;5.93;1.55;;;;;;;;;;5041815;28;20371;-41
2023/04/21 10:49:37;;;;;;;9.27;1.65;;;;;;;;;;5042057;28;20044;-44
2023/04/21 10:52:05;;;;;;;15.73;2.00;;;;;;;;;;5042384;28;20044;-42
2023/04/21 10:54:36;;;;;;;4.53;1.27;;;;;;;;;;5044297;28;20029;-43
2023/04/21 10:57:05;;;;;;;5.25;1.45;;;;;;;;;;5041434;28;20037;-44
2023/04/21 10:59:30;;;;;;;5.75;1.40;;;;;;;;;;5042427;28;20065;-43
2023/04/21 11:01:56;;;;;;;3.83;1.55;;;;;;;;;;5044129;28;20146;-41
2023/04/21 11:04:21;;;;;;;4.75;1.45;;;;;;;;;;5043166;28;20025;-41
2023/04/21 11:07:12;;;;;;;10.63;1.90;;;;;;;;;;5040088;28;20080;-43
2023/04/21 11:09:39;;;;;;;5.15;1.55;;;;;;;;;;5040882;28;20032;-42
2023/04/21 11:12:10;;;;;;;1.40;1.30;;;;;;;;;;5041532;28;20417;-41
2023/04/21 11:14:42;;;;;;;1.85;1.30;;;;;;;;;;5043150;28;20584;-41
2023/04/21 11:17:14;;;;;;;13.35;1.88;;;;;;;;;;5043447;28;20124;-42
2023/04/21 11:19:44;;;;;;;6.65;1.50;;;;;;;;;;5037524;28;20482;-41
2023/04/21 11:22:09;;;;;;;4.07;1.95;;;;;;;;;;5044945;28;20489;-40
2023/04/21 11:24:35;;;;;;;11.93;2.03;;;;;;;;;;5043953;28;20023;-41
2023/04/21 11:27:00;;;;;;;4.68;1.73;;;;;;;;;;5041681;28;20127;-41
2023/04/21 11:29:28;;;;;;;3.50;1.35;;;;;;;;;;5043468;28;20028;-43
2023/04/21 11:31:53;;;;;;;2.25;1.38;;;;;;;;;;5047043;28;20037;-44
2023/04/21 11:34:20;;;;;;;1.40;1.30;;;;;;;;;;5049532;28;20079;-42
2023/04/21 11:36:46;;;;;;;8.88;1.60;;;;;;;;;;5046035;28;20045;-44
2023/04/21 11:39:18;;;;;;;1.70;1.40;;;;;;;;;;5046626;28;20033;-41
2023/04/21 11:41:46;;;;;;;3.47;1.30;;;;;;;;;;5043838;28;20037;-41
2023/04/21 11:44:13;;;;;;;4.10;1.55;;;;;;;;;;5044782;28;20025;-44
2023/04/21 11:46:45;;;;;;;1.45;1.27;;;;;;;;;;5044240;28;20135;-41
2023/04/21 11:49:14;;;;;;;2.65;1.40;;;;;;;;;;5048305;28;20608;-44
2023/04/21 11:51:42;;;;;;;1.45;1.33;;;;;;;;;;5047731;28;20064;-41
2023/04/21 11:54:12;;;;;;;2.60;1.40;;;;;;;;;;5046296;28;20430;-41
2023/04/21 11:56:45;;;;;;;2.13;1.20;;;;;;;;;;5047221;28;20060;-42
2023/04/21 11:59:15;;;;;;;1.20;1.10;;;;;;;;;;5047378;28;20048;-41
2023/04/21 12:01:49;;;;;;;3.58;1.50;;;;;;;;;;5044759;28;20030;-41
2023/04/21 12:04:22;;;;;;;8.20;1.60;;;;;;;;;;5047973;28;20067;-43
2023/04/21 12:06:59;;;;;;;1.30;1.20;;;;;;;;;;5044361;28;20060;-41
2023/04/21 12:09:25;;;;;;;1.52;1.10;;;;;;;;;;5043605;28;20029;-41
2023/04/21 12:11:52;;;;;;;3.75;1.30;;;;;;;;;;5048832;28;20079;-43
2023/04/21 12:14:20;;;;;;;7.30;1.08;;;;;;;;;;5044841;28;20431;-41
2023/04/21 12:16:50;;;;;;;4.07;1.40;;;;;;;;;;5046116;28;20561;-42
2023/04/21 12:19:40;;;;;;;8.40;1.27;;;;;;;;;;5047953;28;20025;-42
2023/04/21 12:22:17;;;;;;;1.10;1.00;;;;;;;;;;5045520;28;20045;-41
2023/04/21 12:24:43;;;;;;;2.17;0.93;;;;;;;;;;5044514;28;20021;-43
2023/04/21 12:27:09;;;;;;;2.03;1.13;;;;;;;;;;5044648;28;20049;-41
2023/04/21 12:29:36;;;;;;;5.10;1.05;;;;;;;;;;5045769;28;20031;-41
2023/04/21 12:32:02;;;;;;;4.90;1.08;;;;;;;;;;5045677;28;20406;-41
2023/04/21 12:34:27;;;;;;;1.95;1.23;;;;;;;;;;5044521;28;20545;-42
2023/04/21 12:36:53;;;;;;;1.65;1.05;;;;;;;;;;5047435;28;20127;-41
2023/04/21 12:39:19;;;;;;;1.88;1.10;;;;;;;;;;5045724;28;20064;-41
2023/04/21 12:41:46;;;;;;;4.07;1.10;;;;;;;;;;5046460;28;20128;-42
2023/04/21 12:44:12;;;;;;;1.48;1.10;;;;;;;;;;5045167;28;20033;-42
2023/04/21 12:46:37;;;;;;;1.27;1.10;;;;;;;;;;5044160;28;20090;-41
2023/04/21 12:49:02;;;;;;;4.72;0.93;;;;;;;;;;5047839;28;20021;-42
2023/04/21 12:51:28;;;;;;;1.10;1.00;;;;;;;;;;5047300;28;20037;-42
2023/04/21 12:53:53;;;;;;;2.38;1.10;;;;;;;;;;5049046;28;20032;-41
2023/04/21 12:56:19;;;;;;;1.70;1.00;;;;;;;;;;5045486;28;20038;-41
2023/04/21 12:58:44;;;;;;;2.28;1.10;;;;;;;;;;5047268;28;20556;-42
2023/04/21 13:01:13;;;;;;;4.25;0.90;;;;;;;;;;5046991;28;20041;-43
2023/04/21 13:03:38;;;;;;;13.52;2.13;;;;;;;;;;5046501;28;20032;-41
2023/04/21 13:06:04;;;;;;;2.42;1.15;;;;;;;;;;5045093;28;20389;-43
2023/04/21 13:08:30;;;;;;;5.22;1.17;;;;;;;;;;5045123;28;20035;-44
2023/04/21 13:10:55;;;;;;;2.47;1.30;;;;;;;;;;5042815;28;20053;-41
2023/04/21 13:13:20;;;;;;;5.43;1.42;;;;;;;;;;5047277;28;20477;-45
2023/04/21 13:15:46;;;;;;;5.15;1.17;;;;;;;;;;5039407;28;20041;-43
2023/04/21 13:18:11;;;;;;;2.65;1.02;;;;;;;;;;5045638;28;20194;-41
2023/04/21 13:20:36;;;;;;;1.13;1.02;;;;;;;;;;5046412;28;20044;-42
2023/04/21 13:23:02;;;;;;;6.60;1.50;;;;;;;;;;5046309;28;20020;-42
2023/04/21 13:25:27;;;;;;;4.05;1.30;;;;;;;;;;5044882;28;20044;-42
2023/04/21 13:27:53;;;;;;;1.88;1.30;;;;;;;;;;5046071;28;20551;-42
2023/04/21 13:30:18;;;;;;;5.18;1.30;;;;;;;;;;5042428;28;20045;-41
2023/04/21 13:32:43;;;;;;;2.30;0.85;;;;;;;;;;5021479;28;20154;-42
2023/04/21 13:35:09;;;;;;;5.65;1.08;;;;;;;;;;5023223;28;20116;-45
2023/04/21 13:37:38;;;;;;;1.30;1.20;;;;;;;;;;5024589;28;20026;-44
2023/04/21 13:40:05;;;;;;;7.25;1.10;;;;;;;;;;5025078;28;20051;-44
2023/04/21 13:42:32;;;;;;;2.03;1.10;;;;;;;;;;5042415;28;20033;-42
2023/04/21 13:44:58;;;;;;;3.95;1.23;;;;;;;;;;5045222;28;20103;-47
2023/04/21 13:47:23;;;;;;;1.40;1.30;;;;;;;;;;5044246;28;20061;-43
2023/04/21 13:49:50;;;;;;;2.53;1.40;;;;;;;;;;5044763;28;20531;-42
2023/04/21 13:52:16;;;;;;;1.52;1.23;;;;;;;;;;5043021;28;20401;-42
2023/04/21 13:54:41;;;;;;;1.67;1.10;;;;;;;;;;5044228;28;20029;-42
2023/04/21 13:57:07;;;;;;;13.00;1.40;;;;;;;;;;5041471;28;20082;-42
2023/04/21 13:59:33;;;;;;;10.82;1.20;;;;;;;;;;5043896;28;20021;-45
2023/04/21 14:01:58;;;;;;;3.20;1.42;;;;;;;;;;5041374;28;20072;-41
2023/04/21 14:04:24;;;;;;;2.92;1.35;;;;;;;;;;5042029;28;20025;-41
2023/04/21 14:06:50;;;;;;;6.60;1.27;;;;;;;;;;5042433;28;20391;-40
2023/04/21 14:09:15;;;;;;;1.50;1.10;;;;;;;;;;5045084;28;20029;-42
2023/04/21 14:11:41;;;;;;;3.03;1.15;;;;;;;;;;5043722;28;20090;-42
2023/04/21 14:14:06;;;;;;;7.30;1.13;;;;;;;;;;5043030;28;20450;-44
2023/04/21 14:16:32;;;;;;;4.80;1.02;;;;;;;;;;5041950;28;20458;-41
2023/04/21 14:18:57;;;;;;;5.40;1.10;;;;;;;;;;5045964;28;20596;-42
2023/04/21 14:21:22;;;;;;;1.05;1.02;;;;;;;;;;5043815;28;20040;-41
2023/04/21 14:23:48;;;;;;;1.00;0.90;;;;;;;;;;5042830;28;20142;-42
2023/04/21 14:26:13;;;;;;;4.18;1.20;;;;;;;;;;5044364;28;20067;-41
2023/04/21 14:28:39;;;;;;;1.27;1.10;;;;;;;;;;5044688;28;20025;-43
2023/04/21 14:31:04;;;;;;;2.95;1.00;;;;;;;;;;5046535;28;20203;-41
2023/04/21 14:33:31;;;;;;;1.98;1.23;;;;;;;;;;5045946;28;20052;-45
2023/04/21 14:35:57;;;;;;;1.00;1.00;;;;;;;;;;5042820;28;20052;-42
2023/04/21 14:38:24;;;;;;;7.10;1.20;;;;;;;;;;5044127;28;20461;-42